sensor_id;sensor_type;location;lat;lon;timestamp;temperature;humidity
23715;DHT22;12036;50.858;4.472;2023-12-29T00:01:51;11.40;99.90
23715;DHT22;12036;50.858;4.472;2023-12-29T00:04:17;11.30;99.90
23715;DHT22;12036;50.858;4.472;2023-12-29T00:06:43;11.30;99.90
23715;DHT22;12036;50.858;4.472;2023-12-29T00:09:08;11.30;99.90
23715;DHT22;12036;50.858;4.472;2023-12-29T00:11:34;11.30;99.90
23715;DHT22;12036;50.858;4.472;2023-12-29T00:14:00;11.40;99.90
23715;DHT22;12036;50.858;4.472;2023-12-29T00:16:27;11.40;99.90
23715;DHT22;12036;50.858;4.472;2023-12-29T00:18:53;11.50;99.90
23715;DHT22;12036;50.858;4.472;2023-12-29T00:21:19;11.40;99.90
23715;DHT22;12036;50.858;4.472;2023-12-29T00:23:44;11.30;99.90
23715;DHT22;12036;50.858;4.472;2023-12-29T00:26:10;11.30;99.90
23715;DHT22;12036;50.858;4.472;2023-12-29T00:28:35;11.20;99.90
23715;DHT22;12036;50.858;4.472;2023-12-29T00:31:06;11.40;99.90
23715;DHT22;12036;50.858;4.472;2023-12-29T00:33:32;11.40;99.90
23715;DHT22;12036;50.858;4.472;2023-12-29T00:35:58;11.50;99.90
23715;DHT22;12036;50.858;4.472;2023-12-29T00:38:26;11.50;99.90
23715;DHT22;12036;50.858;4.472;2023-12-29T00:40:51;11.40;99.90
23715;DHT22;12036;50.858;4.472;2023-12-29T00:43:17;11.40;99.90
23715;DHT22;12036;50.858;4.472;2023-12-29T00:45:43;11.40;99.90
23715;DHT22;12036;50.858;4.472;2023-12-29T00:48:08;11.40;99.90
23715;DHT22;12036;50.858;4.472;2023-12-29T00:50:34;11.40;99.90
23715;DHT22;12036;50.858;4.472;2023-12-29T00:53:00;11.40;99.90
23715;DHT22;12036;50.858;4.472;2023-12-29T00:55:26;11.40;99.90
23715;DHT22;12036;50.858;4.472;2023-12-29T00:57:51;11.30;99.90
23715;DHT22;12036;50.858;4.472;2023-12-29T01:00:17;11.30;99.90
23715;DHT22;12036;50.858;4.472;2023-12-29T01:02:42;11.40;99.90
23715;DHT22;12036;50.858;4.472;2023-12-29T01:05:08;11.50;99.90
23715;DHT22;12036;50.858;4.472;2023-12-29T01:07:34;11.50;99.90
23715;DHT22;12036;50.858;4.472;2023-12-29T01:09:59;11.50;99.90
23715;DHT22;12036;50.858;4.472;2023-12-29T01:12:26;11.50;99.90
23715;DHT22;12036;50.858;4.472;2023-12-29T01:14:52;11.40;99.90
23715;DHT22;12036;50.858;4.472;2023-12-29T01:17:17;11.40;99.90
23715;DHT22;12036;50.858;4.472;2023-12-29T01:19:43;11.30;99.90
23715;DHT22;12036;50.858;4.472;2023-12-29T01:22:08;11.50;99.90
23715;DHT22;12036;50.858;4.472;2023-12-29T01:24:34;11.60;99.90
23715;DHT22;12036;50.858;4.472;2023-12-29T01:26:59;11.60;99.90
23715;DHT22;12036;50.858;4.472;2023-12-29T01:29:25;11.50;99.90
23715;DHT22;12036;50.858;4.472;2023-12-29T01:31:51;11.50;99.90
23715;DHT22;12036;50.858;4.472;2023-12-29T01:34:16;11.50;99.90
23715;DHT22;12036;50.858;4.472;2023-12-29T01:36:42;11.50;99.90
23715;DHT22;12036;50.858;4.472;2023-12-29T01:39:08;11.40;99.90
23715;DHT22;12036;50.858;4.472;2023-12-29T01:41:33;11.40;99.90
23715;DHT22;12036;50.858;4.472;2023-12-29T01:46:31;11.40;99.90
23715;DHT22;12036;50.858;4.472;2023-12-29T01:48:58;11.50;99.90
23715;DHT22;12036;50.858;4.472;2023-12-29T01:51:25;11.40;99.90
23715;DHT22;12036;50.858;4.472;2023-12-29T01:53:53;11.40;99.90
23715;DHT22;12036;50.858;4.472;2023-12-29T01:56:20;11.40;99.90
23715;DHT22;12036;50.858;4.472;2023-12-29T01:58:49;11.40;99.90
23715;DHT22;12036;50.858;4.472;2023-12-29T02:01:15;11.40;99.90
23715;DHT22;12036;50.858;4.472;2023-12-29T02:03:42;11.40;99.90
23715;DHT22;12036;50.858;4.472;2023-12-29T02:06:10;11.30;99.90
23715;DHT22;12036;50.858;4.472;2023-12-29T02:08:37;11.40;99.90
23715;DHT22;12036;50.858;4.472;2023-12-29T02:11:03;11.40;99.90
23715;DHT22;12036;50.858;4.472;2023-12-29T02:13:29;11.40;99.90
23715;DHT22;12036;50.858;4.472;2023-12-29T02:16:00;11.40;99.90
23715;DHT22;12036;50.858;4.472;2023-12-29T02:18:30;11.50;99.90
23715;DHT22;12036;50.858;4.472;2023-12-29T02:20:55;11.50;99.90
23715;DHT22;12036;50.858;4.472;2023-12-29T02:23:21;11.50;99.90
23715;DHT22;12036;50.858;4.472;2023-12-29T02:25:47;11.50;99.90
23715;DHT22;12036;50.858;4.472;2023-12-29T02:28:22;11.60;99.90
23715;DHT22;12036;50.858;4.472;2023-12-29T02:30:54;11.50;99.90
23715;DHT22;12036;50.858;4.472;2023-12-29T02:33:22;11.50;99.90
23715;DHT22;12036;50.858;4.472;2023-12-29T02:35:50;11.50;99.90
23715;DHT22;12036;50.858;4.472;2023-12-29T02:38:17;11.60;99.90
23715;DHT22;12036;50.858;4.472;2023-12-29T02:40:43;11.50;99.90
23715;DHT22;12036;50.858;4.472;2023-12-29T02:43:09;11.50;99.90
23715;DHT22;12036;50.858;4.472;2023-12-29T02:45:35;11.50;99.90
23715;DHT22;12036;50.858;4.472;2023-12-29T02:48:00;11.60;99.90
23715;DHT22;12036;50.858;4.472;2023-12-29T02:50:26;11.50;99.90
23715;DHT22;12036;50.858;4.472;2023-12-29T02:52:52;11.50;99.90
23715;DHT22;12036;50.858;4.472;2023-12-29T02:55:17;11.50;99.90
23715;DHT22;12036;50.858;4.472;2023-12-29T02:57:43;11.40;99.90
23715;DHT22;12036;50.858;4.472;2023-12-29T03:00:09;11.50;99.90
23715;DHT22;12036;50.858;4.472;2023-12-29T03:02:35;11.40;99.90
23715;DHT22;12036;50.858;4.472;2023-12-29T03:05:00;11.40;99.90
23715;DHT22;12036;50.858;4.472;2023-12-29T03:07:26;11.50;99.90
23715;DHT22;12036;50.858;4.472;2023-12-29T03:09:52;11.50;99.90
23715;DHT22;12036;50.858;4.472;2023-12-29T03:12:17;11.60;99.90
23715;DHT22;12036;50.858;4.472;2023-12-29T03:14:44;11.50;99.90
23715;DHT22;12036;50.858;4.472;2023-12-29T03:17:11;11.50;99.90
23715;DHT22;12036;50.858;4.472;2023-12-29T03:19:37;11.50;99.90
23715;DHT22;12036;50.858;4.472;2023-12-29T03:22:02;11.50;99.90
23715;DHT22;12036;50.858;4.472;2023-12-29T03:24:29;11.40;99.90
23715;DHT22;12036;50.858;4.472;2023-12-29T03:26:55;11.40;99.90
23715;DHT22;12036;50.858;4.472;2023-12-29T03:29:20;11.40;99.90
23715;DHT22;12036;50.858;4.472;2023-12-29T03:31:46;11.30;99.90
23715;DHT22;12036;50.858;4.472;2023-12-29T03:34:12;11.20;99.90
23715;DHT22;12036;50.858;4.472;2023-12-29T03:36:37;11.10;99.90
23715;DHT22;12036;50.858;4.472;2023-12-29T03:39:03;11.00;99.90
23715;DHT22;12036;50.858;4.472;2023-12-29T03:41:29;11.00;99.90
23715;DHT22;12036;50.858;4.472;2023-12-29T03:43:55;11.00;99.90
23715;DHT22;12036;50.858;4.472;2023-12-29T03:46:22;10.90;99.90
23715;DHT22;12036;50.858;4.472;2023-12-29T03:48:48;11.00;99.90
23715;DHT22;12036;50.858;4.472;2023-12-29T03:51:14;10.90;99.90
23715;DHT22;12036;50.858;4.472;2023-12-29T03:53:40;10.90;99.90
23715;DHT22;12036;50.858;4.472;2023-12-29T03:58:32;10.90;99.90
23715;DHT22;12036;50.858;4.472;2023-12-29T04:00:58;10.90;99.90
23715;DHT22;12036;50.858;4.472;2023-12-29T04:03:23;10.80;99.90
23715;DHT22;12036;50.858;4.472;2023-12-29T04:05:49;10.80;99.90
23715;DHT22;12036;50.858;4.472;2023-12-29T04:08:15;10.80;99.90
23715;DHT22;12036;50.858;4.472;2023-12-29T04:10:40;10.70;99.90
23715;DHT22;12036;50.858;4.472;2023-12-29T04:13:06;10.70;99.90
23715;DHT22;12036;50.858;4.472;2023-12-29T04:15:31;10.70;99.90
23715;DHT22;12036;50.858;4.472;2023-12-29T04:17:57;10.70;99.90
23715;DHT22;12036;50.858;4.472;2023-12-29T04:20:23;10.70;99.90
23715;DHT22;12036;50.858;4.472;2023-12-29T04:22:50;10.60;99.90
23715;DHT22;12036;50.858;4.472;2023-12-29T04:25:15;10.70;99.90
23715;DHT22;12036;50.858;4.472;2023-12-29T04:27:41;10.60;99.90
23715;DHT22;12036;50.858;4.472;2023-12-29T04:30:07;10.60;99.90
23715;DHT22;12036;50.858;4.472;2023-12-29T04:32:33;10.60;99.90
23715;DHT22;12036;50.858;4.472;2023-12-29T04:34:58;10.80;99.90
23715;DHT22;12036;50.858;4.472;2023-12-29T04:37:24;10.80;99.90
23715;DHT22;12036;50.858;4.472;2023-12-29T04:39:50;10.80;99.90
23715;DHT22;12036;50.858;4.472;2023-12-29T04:42:15;10.70;99.90
23715;DHT22;12036;50.858;4.472;2023-12-29T04:44:43;10.70;99.90
23715;DHT22;12036;50.858;4.472;2023-12-29T04:47:09;10.60;99.90
23715;DHT22;12036;50.858;4.472;2023-12-29T04:49:34;10.70;99.90
23715;DHT22;12036;50.858;4.472;2023-12-29T04:52:00;10.70;99.90
23715;DHT22;12036;50.858;4.472;2023-12-29T04:54:26;10.70;99.90
23715;DHT22;12036;50.858;4.472;2023-12-29T04:56:51;10.70;99.90
23715;DHT22;12036;50.858;4.472;2023-12-29T04:59:17;10.70;99.90
23715;DHT22;12036;50.858;4.472;2023-12-29T05:01:43;10.80;99.90
23715;DHT22;12036;50.858;4.472;2023-12-29T05:04:08;10.80;99.90
23715;DHT22;12036;50.858;4.472;2023-12-29T05:06:34;10.80;99.90
23715;DHT22;12036;50.858;4.472;2023-12-29T05:09:00;10.80;99.90
23715;DHT22;12036;50.858;4.472;2023-12-29T05:11:25;10.80;99.90
23715;DHT22;12036;50.858;4.472;2023-12-29T05:13:51;10.70;99.90
23715;DHT22;12036;50.858;4.472;2023-12-29T05:16:17;10.80;99.90
23715;DHT22;12036;50.858;4.472;2023-12-29T05:18:42;10.80;99.90
23715;DHT22;12036;50.858;4.472;2023-12-29T05:21:18;10.90;99.90
23715;DHT22;12036;50.858;4.472;2023-12-29T05:23:44;10.90;99.90
23715;DHT22;12036;50.858;4.472;2023-12-29T05:26:11;10.80;99.90
23715;DHT22;12036;50.858;4.472;2023-12-29T05:28:36;10.90;99.90
23715;DHT22;12036;50.858;4.472;2023-12-29T05:31:02;10.90;99.90
23715;DHT22;12036;50.858;4.472;2023-12-29T05:33:34;11.00;99.90
23715;DHT22;12036;50.858;4.472;2023-12-29T05:36:06;10.80;99.90
23715;DHT22;12036;50.858;4.472;2023-12-29T05:38:35;10.90;99.90
23715;DHT22;12036;50.858;4.472;2023-12-29T05:41:04;10.90;99.90
23715;DHT22;12036;50.858;4.472;2023-12-29T05:43:33;10.80;99.90
23715;DHT22;12036;50.858;4.472;2023-12-29T05:46:00;10.80;99.90
23715;DHT22;12036;50.858;4.472;2023-12-29T05:48:26;10.80;99.90
23715;DHT22;12036;50.858;4.472;2023-12-29T05:50:52;10.80;99.90
23715;DHT22;12036;50.858;4.472;2023-12-29T05:53:17;10.90;99.90
23715;DHT22;12036;50.858;4.472;2023-12-29T05:55:44;10.80;99.90
23715;DHT22;12036;50.858;4.472;2023-12-29T05:58:10;10.80;99.90
23715;DHT22;12036;50.858;4.472;2023-12-29T06:00:36;10.80;99.90
23715;DHT22;12036;50.858;4.472;2023-12-29T06:03:02;10.90;99.90
23715;DHT22;12036;50.858;4.472;2023-12-29T06:05:32;10.80;99.90
23715;DHT22;12036;50.858;4.472;2023-12-29T06:07:58;10.70;99.90
23715;DHT22;12036;50.858;4.472;2023-12-29T06:10:24;10.70;99.90
23715;DHT22;12036;50.858;4.472;2023-12-29T06:12:49;10.60;99.90
23715;DHT22;12036;50.858;4.472;2023-12-29T06:15:15;10.40;99.90
23715;DHT22;12036;50.858;4.472;2023-12-29T06:17:41;10.30;99.90
23715;DHT22;12036;50.858;4.472;2023-12-29T06:20:07;10.10;99.90
23715;DHT22;12036;50.858;4.472;2023-12-29T06:22:39;10.10;99.90
23715;DHT22;12036;50.858;4.472;2023-12-29T06:25:10;10.00;99.90
23715;DHT22;12036;50.858;4.472;2023-12-29T06:27:36;9.90;99.90
23715;DHT22;12036;50.858;4.472;2023-12-29T06:30:07;9.90;99.90
23715;DHT22;12036;50.858;4.472;2023-12-29T06:32:33;10.00;99.90
23715;DHT22;12036;50.858;4.472;2023-12-29T06:34:58;9.90;99.90
23715;DHT22;12036;50.858;4.472;2023-12-29T06:37:24;9.80;99.90
23715;DHT22;12036;50.858;4.472;2023-12-29T06:39:50;9.80;99.90
23715;DHT22;12036;50.858;4.472;2023-12-29T06:42:15;9.80;99.90
23715;DHT22;12036;50.858;4.472;2023-12-29T06:44:41;9.80;99.90
23715;DHT22;12036;50.858;4.472;2023-12-29T06:47:07;9.80;99.90
23715;DHT22;12036;50.858;4.472;2023-12-29T06:49:34;9.80;99.90
23715;DHT22;12036;50.858;4.472;2023-12-29T06:52:00;9.80;99.90
23715;DHT22;12036;50.858;4.472;2023-12-29T06:54:26;9.90;99.90
23715;DHT22;12036;50.858;4.472;2023-12-29T06:56:52;9.80;99.90
23715;DHT22;12036;50.858;4.472;2023-12-29T06:59:17;9.80;99.90
23715;DHT22;12036;50.858;4.472;2023-12-29T07:01:48;9.80;99.90
23715;DHT22;12036;50.858;4.472;2023-12-29T07:04:13;9.80;99.90
23715;DHT22;12036;50.858;4.472;2023-12-29T07:06:41;9.80;99.90
23715;DHT22;12036;50.858;4.472;2023-12-29T07:09:07;9.80;99.90
23715;DHT22;12036;50.858;4.472;2023-12-29T07:11:33;9.80;99.90
23715;DHT22;12036;50.858;4.472;2023-12-29T07:13:59;9.80;99.90
23715;DHT22;12036;50.858;4.472;2023-12-29T07:16:24;9.80;99.90
23715;DHT22;12036;50.858;4.472;2023-12-29T07:18:50;9.80;99.90
23715;DHT22;12036;50.858;4.472;2023-12-29T07:21:17;9.80;99.90
23715;DHT22;12036;50.858;4.472;2023-12-29T07:23:42;9.80;99.90
23715;DHT22;12036;50.858;4.472;2023-12-29T07:26:08;9.80;99.90
23715;DHT22;12036;50.858;4.472;2023-12-29T07:28:34;9.90;99.90
23715;DHT22;12036;50.858;4.472;2023-12-29T07:31:00;9.80;99.90
23715;DHT22;12036;50.858;4.472;2023-12-29T07:33:26;9.90;99.90
23715;DHT22;12036;50.858;4.472;2023-12-29T07:35:52;9.90;99.90
23715;DHT22;12036;50.858;4.472;2023-12-29T07:38:18;9.90;99.90
23715;DHT22;12036;50.858;4.472;2023-12-29T07:40:44;9.90;99.90
23715;DHT22;12036;50.858;4.472;2023-12-29T07:43:09;9.90;99.90
23715;DHT22;12036;50.858;4.472;2023-12-29T07:45:35;9.90;99.90
23715;DHT22;12036;50.858;4.472;2023-12-29T07:48:03;9.80;99.90
23715;DHT22;12036;50.858;4.472;2023-12-29T07:50:29;9.80;99.90
23715;DHT22;12036;50.858;4.472;2023-12-29T07:52:54;9.90;99.90
23715;DHT22;12036;50.858;4.472;2023-12-29T07:55:20;9.90;99.90
23715;DHT22;12036;50.858;4.472;2023-12-29T07:57:46;9.90;99.90
23715;DHT22;12036;50.858;4.472;2023-12-29T08:00:16;9.90;99.90
23715;DHT22;12036;50.858;4.472;2023-12-29T08:02:41;9.90;99.90
23715;DHT22;12036;50.858;4.472;2023-12-29T08:05:07;10.00;99.90
23715;DHT22;12036;50.858;4.472;2023-12-29T08:07:34;9.90;99.90
23715;DHT22;12036;50.858;4.472;2023-12-29T08:10:00;9.90;99.90
23715;DHT22;12036;50.858;4.472;2023-12-29T08:12:26;10.00;99.90
23715;DHT22;12036;50.858;4.472;2023-12-29T08:14:53;10.00;99.90
23715;DHT22;12036;50.858;4.472;2023-12-29T08:17:19;9.90;99.90
23715;DHT22;12036;50.858;4.472;2023-12-29T08:19:44;10.00;99.90
23715;DHT22;12036;50.858;4.472;2023-12-29T08:22:10;9.90;99.90
23715;DHT22;12036;50.858;4.472;2023-12-29T08:24:36;10.00;99.90
23715;DHT22;12036;50.858;4.472;2023-12-29T08:27:02;9.90;99.90
23715;DHT22;12036;50.858;4.472;2023-12-29T08:29:29;9.80;99.90
23715;DHT22;12036;50.858;4.472;2023-12-29T08:31:54;9.90;99.90
23715;DHT22;12036;50.858;4.472;2023-12-29T08:34:20;9.90;99.90
23715;DHT22;12036;50.858;4.472;2023-12-29T08:36:46;10.00;99.90
23715;DHT22;12036;50.858;4.472;2023-12-29T08:39:11;10.00;99.90
23715;DHT22;12036;50.858;4.472;2023-12-29T08:41:37;9.90;99.90
23715;DHT22;12036;50.858;4.472;2023-12-29T08:44:03;10.00;99.90
23715;DHT22;12036;50.858;4.472;2023-12-29T08:46:29;9.90;99.90
23715;DHT22;12036;50.858;4.472;2023-12-29T08:48:55;10.00;99.90
23715;DHT22;12036;50.858;4.472;2023-12-29T08:51:21;10.00;99.90
23715;DHT22;12036;50.858;4.472;2023-12-29T08:53:46;10.00;99.90
23715;DHT22;12036;50.858;4.472;2023-12-29T08:56:12;10.00;99.90
23715;DHT22;12036;50.858;4.472;2023-12-29T08:58:39;9.90;99.90
23715;DHT22;12036;50.858;4.472;2023-12-29T09:01:05;10.00;99.90
23715;DHT22;12036;50.858;4.472;2023-12-29T09:03:31;10.10;99.90
23715;DHT22;12036;50.858;4.472;2023-12-29T09:05:56;10.10;99.90
23715;DHT22;12036;50.858;4.472;2023-12-29T09:08:22;10.10;99.90
23715;DHT22;12036;50.858;4.472;2023-12-29T09:10:48;10.10;99.90
23715;DHT22;12036;50.858;4.472;2023-12-29T09:13:13;10.10;99.90
23715;DHT22;12036;50.858;4.472;2023-12-29T09:15:39;10.10;99.90
23715;DHT22;12036;50.858;4.472;2023-12-29T09:18:05;10.10;99.90
23715;DHT22;12036;50.858;4.472;2023-12-29T09:20:31;10.20;99.90
23715;DHT22;12036;50.858;4.472;2023-12-29T09:22:57;10.30;99.90
23715;DHT22;12036;50.858;4.472;2023-12-29T09:25:23;10.30;99.90
23715;DHT22;12036;50.858;4.472;2023-12-29T09:27:49;10.40;99.90
23715;DHT22;12036;50.858;4.472;2023-12-29T09:30:17;10.50;99.90
23715;DHT22;12036;50.858;4.472;2023-12-29T09:32:44;10.40;99.90
23715;DHT22;12036;50.858;4.472;2023-12-29T09:35:09;10.40;99.90
23715;DHT22;12036;50.858;4.472;2023-12-29T09:37:35;10.40;99.90
23715;DHT22;12036;50.858;4.472;2023-12-29T09:40:01;10.50;99.90
23715;DHT22;12036;50.858;4.472;2023-12-29T09:42:28;10.50;99.90
23715;DHT22;12036;50.858;4.472;2023-12-29T09:44:55;10.40;99.90
23715;DHT22;12036;50.858;4.472;2023-12-29T09:47:23;10.30;99.90
23715;DHT22;12036;50.858;4.472;2023-12-29T09:49:49;10.40;99.90
23715;DHT22;12036;50.858;4.472;2023-12-29T09:52:16;10.50;99.90
23715;DHT22;12036;50.858;4.472;2023-12-29T09:54:42;10.40;99.90
23715;DHT22;12036;50.858;4.472;2023-12-29T09:57:08;10.50;99.90
23715;DHT22;12036;50.858;4.472;2023-12-29T09:59:35;10.40;99.90
23715;DHT22;12036;50.858;4.472;2023-12-29T10:02:05;10.40;99.90
23715;DHT22;12036;50.858;4.472;2023-12-29T10:04:31;10.40;99.90
23715;DHT22;12036;50.858;4.472;2023-12-29T10:07:01;10.40;99.90
23715;DHT22;12036;50.858;4.472;2023-12-29T10:09:30;10.40;99.90
23715;DHT22;12036;50.858;4.472;2023-12-29T10:11:56;10.40;99.90
23715;DHT22;12036;50.858;4.472;2023-12-29T10:14:45;10.50;99.90
23715;DHT22;12036;50.858;4.472;2023-12-29T10:23:10;10.70;99.90
23715;DHT22;12036;50.858;4.472;2023-12-29T10:25:39;10.70;99.90
23715;DHT22;12036;50.858;4.472;2023-12-29T10:28:06;10.70;99.90
23715;DHT22;12036;50.858;4.472;2023-12-29T10:30:32;10.80;99.90
23715;DHT22;12036;50.858;4.472;2023-12-29T10:32:58;10.80;99.90
23715;DHT22;12036;50.858;4.472;2023-12-29T10:35:26;10.80;99.90
23715;DHT22;12036;50.858;4.472;2023-12-29T10:37:51;10.90;99.90
23715;DHT22;12036;50.858;4.472;2023-12-29T10:40:19;10.90;99.90
23715;DHT22;12036;50.858;4.472;2023-12-29T10:42:55;11.10;99.90
23715;DHT22;12036;50.858;4.472;2023-12-29T10:45:23;11.00;99.90
23715;DHT22;12036;50.858;4.472;2023-12-29T10:47:50;11.10;99.90
23715;DHT22;12036;50.858;4.472;2023-12-29T10:50:16;11.10;99.90
23715;DHT22;12036;50.858;4.472;2023-12-29T10:52:42;11.10;99.90
23715;DHT22;12036;50.858;4.472;2023-12-29T10:55:11;11.00;99.90
23715;DHT22;12036;50.858;4.472;2023-12-29T10:57:37;11.20;99.90
23715;DHT22;12036;50.858;4.472;2023-12-29T11:00:04;11.20;99.90
23715;DHT22;12036;50.858;4.472;2023-12-29T11:02:32;11.00;99.90
23715;DHT22;12036;50.858;4.472;2023-12-29T11:07:36;11.00;99.90
23715;DHT22;12036;50.858;4.472;2023-12-29T11:10:03;11.00;99.90
23715;DHT22;12036;50.858;4.472;2023-12-29T11:12:32;11.00;99.90
23715;DHT22;12036;50.858;4.472;2023-12-29T11:14:58;11.10;99.90
23715;DHT22;12036;50.858;4.472;2023-12-29T11:17:24;11.20;99.90
23715;DHT22;12036;50.858;4.472;2023-12-29T11:19:52;11.30;99.90
23715;DHT22;12036;50.858;4.472;2023-12-29T11:22:18;11.30;99.90
23715;DHT22;12036;50.858;4.472;2023-12-29T11:24:48;11.40;99.90
23715;DHT22;12036;50.858;4.472;2023-12-29T11:27:14;11.30;99.90
23715;DHT22;12036;50.858;4.472;2023-12-29T11:29:42;11.30;99.90
23715;DHT22;12036;50.858;4.472;2023-12-29T11:32:14;11.30;99.90
23715;DHT22;12036;50.858;4.472;2023-12-29T11:34:50;11.30;99.90
23715;DHT22;12036;50.858;4.472;2023-12-29T11:40:14;11.30;99.90
23715;DHT22;12036;50.858;4.472;2023-12-29T11:42:42;11.30;99.90
23715;DHT22;12036;50.858;4.472;2023-12-29T11:45:29;11.30;99.90
23715;DHT22;12036;50.858;4.472;2023-12-29T11:47:57;11.20;99.90
23715;DHT22;12036;50.858;4.472;2023-12-29T11:50:32;11.10;99.90
23715;DHT22;12036;50.858;4.472;2023-12-29T11:52:59;11.10;99.90
23715;DHT22;12036;50.858;4.472;2023-12-29T11:55:34;11.10;99.90
23715;DHT22;12036;50.858;4.472;2023-12-29T11:58:01;11.20;99.90
23715;DHT22;12036;50.858;4.472;2023-12-29T12:00:46;11.20;99.90
23715;DHT22;12036;50.858;4.472;2023-12-29T12:03:28;11.20;99.90
23715;DHT22;12036;50.858;4.472;2023-12-29T12:05:57;11.10;99.90
23715;DHT22;12036;50.858;4.472;2023-12-29T12:08:41;11.20;99.90
23715;DHT22;12036;50.858;4.472;2023-12-29T12:13:55;10.90;99.90
23715;DHT22;12036;50.858;4.472;2023-12-29T12:19:12;10.90;99.90
23715;DHT22;12036;50.858;4.472;2023-12-29T12:21:38;10.80;99.90
23715;DHT22;12036;50.858;4.472;2023-12-29T12:24:05;10.70;99.90
23715;DHT22;12036;50.858;4.472;2023-12-29T12:26:31;10.60;99.90
23715;DHT22;12036;50.858;4.472;2023-12-29T12:28:57;10.70;99.90
23715;DHT22;12036;50.858;4.472;2023-12-29T12:31:23;10.60;99.90
23715;DHT22;12036;50.858;4.472;2023-12-29T12:33:56;10.70;99.90
23715;DHT22;12036;50.858;4.472;2023-12-29T12:36:22;10.60;99.90
23715;DHT22;12036;50.858;4.472;2023-12-29T12:38:58;10.50;99.90
23715;DHT22;12036;50.858;4.472;2023-12-29T12:41:25;10.60;99.90
23715;DHT22;12036;50.858;4.472;2023-12-29T12:44:29;10.50;99.90
23715;DHT22;12036;50.858;4.472;2023-12-29T12:46:57;10.60;99.90
23715;DHT22;12036;50.858;4.472;2023-12-29T12:49:24;10.50;99.90
23715;DHT22;12036;50.858;4.472;2023-12-29T12:51:50;10.60;99.90
23715;DHT22;12036;50.858;4.472;2023-12-29T12:54:18;10.60;99.90
23715;DHT22;12036;50.858;4.472;2023-12-29T12:56:47;10.50;99.90
23715;DHT22;12036;50.858;4.472;2023-12-29T12:59:13;10.40;99.90
23715;DHT22;12036;50.858;4.472;2023-12-29T13:01:39;10.50;99.90
23715;DHT22;12036;50.858;4.472;2023-12-29T13:04:05;10.60;99.90
23715;DHT22;12036;50.858;4.472;2023-12-29T13:06:32;10.60;99.90
23715;DHT22;12036;50.858;4.472;2023-12-29T13:08:58;10.60;99.90
23715;DHT22;12036;50.858;4.472;2023-12-29T13:11:24;10.60;99.90
23715;DHT22;12036;50.858;4.472;2023-12-29T13:13:52;10.70;99.90
23715;DHT22;12036;50.858;4.472;2023-12-29T13:16:44;10.60;99.90
23715;DHT22;12036;50.858;4.472;2023-12-29T13:19:23;10.70;99.90
23715;DHT22;12036;50.858;4.472;2023-12-29T13:21:54;10.70;99.90
23715;DHT22;12036;50.858;4.472;2023-12-29T13:24:24;10.70;99.90
23715;DHT22;12036;50.858;4.472;2023-12-29T13:26:52;10.70;99.90
23715;DHT22;12036;50.858;4.472;2023-12-29T13:29:21;10.70;99.90
23715;DHT22;12036;50.858;4.472;2023-12-29T13:31:49;10.50;99.90
23715;DHT22;12036;50.858;4.472;2023-12-29T13:34:21;10.60;99.90
23715;DHT22;12036;50.858;4.472;2023-12-29T13:36:59;10.60;99.90
23715;DHT22;12036;50.858;4.472;2023-12-29T13:41:55;10.60;99.90
23715;DHT22;12036;50.858;4.472;2023-12-29T13:44:21;10.70;99.90
23715;DHT22;12036;50.858;4.472;2023-12-29T13:46:48;10.60;99.90
23715;DHT22;12036;50.858;4.472;2023-12-29T13:49:15;10.70;99.90
23715;DHT22;12036;50.858;4.472;2023-12-29T13:51:42;10.60;99.90
23715;DHT22;12036;50.858;4.472;2023-12-29T13:54:07;10.60;99.90
23715;DHT22;12036;50.858;4.472;2023-12-29T13:56:33;10.60;99.90
23715;DHT22;12036;50.858;4.472;2023-12-29T13:59:00;10.70;99.90
23715;DHT22;12036;50.858;4.472;2023-12-29T14:01:35;10.70;99.90
23715;DHT22;12036;50.858;4.472;2023-12-29T14:04:03;10.60;99.90
23715;DHT22;12036;50.858;4.472;2023-12-29T14:06:50;10.50;99.90
23715;DHT22;12036;50.858;4.472;2023-12-29T14:09:17;10.50;99.90
23715;DHT22;12036;50.858;4.472;2023-12-29T14:11:50;10.50;99.90
23715;DHT22;12036;50.858;4.472;2023-12-29T14:14:26;10.50;99.90
23715;DHT22;12036;50.858;4.472;2023-12-29T14:16:52;10.50;99.90
23715;DHT22;12036;50.858;4.472;2023-12-29T14:19:19;10.40;99.90
23715;DHT22;12036;50.858;4.472;2023-12-29T14:21:55;10.50;99.90
23715;DHT22;12036;50.858;4.472;2023-12-29T14:24:21;10.50;99.90
23715;DHT22;12036;50.858;4.472;2023-12-29T14:29:18;10.50;99.90
23715;DHT22;12036;50.858;4.472;2023-12-29T14:31:44;10.50;99.90
23715;DHT22;12036;50.858;4.472;2023-12-29T14:34:11;10.60;99.90
23715;DHT22;12036;50.858;4.472;2023-12-29T14:36:38;10.50;99.90
23715;DHT22;12036;50.858;4.472;2023-12-29T14:39:04;10.50;99.90
23715;DHT22;12036;50.858;4.472;2023-12-29T14:41:31;10.60;99.90
23715;DHT22;12036;50.858;4.472;2023-12-29T14:43:57;10.60;99.90
23715;DHT22;12036;50.858;4.472;2023-12-29T14:46:23;10.60;99.90
23715;DHT22;12036;50.858;4.472;2023-12-29T14:48:48;10.60;99.90
23715;DHT22;12036;50.858;4.472;2023-12-29T14:51:15;10.60;99.90
23715;DHT22;12036;50.858;4.472;2023-12-29T14:53:46;10.60;99.90
23715;DHT22;12036;50.858;4.472;2023-12-29T14:56:13;10.60;99.90
23715;DHT22;12036;50.858;4.472;2023-12-29T14:58:39;10.60;99.90
23715;DHT22;12036;50.858;4.472;2023-12-29T15:01:06;10.60;99.90
23715;DHT22;12036;50.858;4.472;2023-12-29T15:03:32;10.50;99.90
23715;DHT22;12036;50.858;4.472;2023-12-29T15:05:59;10.50;99.90
23715;DHT22;12036;50.858;4.472;2023-12-29T15:08:25;10.50;99.90
23715;DHT22;12036;50.858;4.472;2023-12-29T15:10:51;10.60;99.90
23715;DHT22;12036;50.858;4.472;2023-12-29T15:13:17;10.60;99.90
23715;DHT22;12036;50.858;4.472;2023-12-29T15:15:42;10.50;99.90
23715;DHT22;12036;50.858;4.472;2023-12-29T15:18:08;10.50;99.90
23715;DHT22;12036;50.858;4.472;2023-12-29T15:20:34;10.50;99.90
23715;DHT22;12036;50.858;4.472;2023-12-29T15:22:59;10.50;99.90
23715;DHT22;12036;50.858;4.472;2023-12-29T15:25:27;10.60;99.90
23715;DHT22;12036;50.858;4.472;2023-12-29T15:27:53;10.50;99.90
23715;DHT22;12036;50.858;4.472;2023-12-29T15:30:19;10.60;99.90
23715;DHT22;12036;50.858;4.472;2023-12-29T15:32:45;10.50;99.90
23715;DHT22;12036;50.858;4.472;2023-12-29T15:35:11;10.50;99.90
23715;DHT22;12036;50.858;4.472;2023-12-29T15:37:37;10.60;99.90
23715;DHT22;12036;50.858;4.472;2023-12-29T15:40:03;10.50;99.90
23715;DHT22;12036;50.858;4.472;2023-12-29T15:42:30;10.40;99.90
23715;DHT22;12036;50.858;4.472;2023-12-29T15:44:56;10.40;99.90
23715;DHT22;12036;50.858;4.472;2023-12-29T15:47:21;10.50;99.90
23715;DHT22;12036;50.858;4.472;2023-12-29T15:49:47;10.40;99.90
23715;DHT22;12036;50.858;4.472;2023-12-29T15:52:12;10.40;99.90
23715;DHT22;12036;50.858;4.472;2023-12-29T15:54:38;10.40;99.90
23715;DHT22;12036;50.858;4.472;2023-12-29T15:57:04;10.40;99.90
23715;DHT22;12036;50.858;4.472;2023-12-29T15:59:33;10.30;99.90